New Wilmington, PA (16142)

4:44 AM EST on February 14, 2016 (GMT -0500)
Westminster College Field Station | | Change Station
CLOSE
Current Station
Personal Weather Station
Location: New Wilmington, PA
Elevation: 1010 ft
Nearby Weather Stations

Elev 1010 ft 41.11 °N, 80.32 °W | Updated 4 minutes ago

Clear
Clear
-10.0 °F
Feels Like -10 °F
N
0.0
Wind Variable Wind from NW

Today
High -- | Low -- °F
--% Chance of Precip.
Yesterday
High -- | Low -- °F
Precip. -- in
Pressure 30.57 in
Visibility 10.0 miles
Clouds Clear
Windchill -10 °F
Dew Point -13 °F
Humidity 88%
Rainfall 0.00 in
Snow Depth Not available.
7:17 AM 5:53 PM
Waxing Crescent, 40% visible
METAR KUCP 140856Z AUTO 23003KT 10SM CLR M20/M22 A3043 RMK AO2 SLP350 60000 T12001217 53004
Pressure 30.57 in
Visibility 10.0 miles
Clouds Clear
Windchill -10 °F
Dew Point -13 °F
Humidity 88%
Rainfall 0.00 in
Snow Depth Not available.
7:17 AM 5:53 PM
Waxing Crescent, 40% visible
METAR KUCP 140856Z AUTO 23003KT 10SM CLR M20/M22 A3043 RMK AO2 SLP350 60000 T12001217 53004

10-Day Weather Forecast

Almanac

Astronomy

Feb. 14, 2016 Rise Set
Actual Time
Civil Twilight
Nautical Twilight
Astronomical Twilight
Moon
Length of Visible Light
Length of Day
Tomorrow will be .
, % of the Moon is Illuminated

Today's Extremes

State Highs State Lows

Community

WunderPhotos

Upload Photos

1,892,761 photos uploaded!

WunderBlog® & News

Nearby

Air Quality

  Air Quality AQ Index Pollutant
Not available.

Snow Depth

Station Depth Elevation

Earthquake Activity

City Distance Mag. Time & Date
Minimum magnitude displayed is 2.5.

Coastal Water Temperatures

Place Temperature

Stations

Nearby Weather Stations

Station Location Temp. Windchill Dew Point Humidity Wind Precip. Elev Updated Type
                   

Watches & Warnings

There are currently no watches in effect.